createdAt,value
2019-05-23T00:00:59.194Z,99990.41
2019-05-23T00:03:38.124Z,99988.83
2019-05-23T00:06:11.338Z,99992.80
2019-05-23T00:08:42.885Z,99992.16
2019-05-23T00:11:33.472Z,99993.63
2019-05-23T00:14:08.400Z,99993.44
2019-05-23T00:16:40.615Z,99992.70
2019-05-23T00:19:11.885Z,99991.12
2019-05-23T00:21:44.035Z,99991.63
2019-05-23T00:24:15.252Z,99989.72
2019-05-23T00:26:47.254Z,99987.69
2019-05-23T00:29:19.249Z,99980.94
2019-05-23T00:32:00.369Z,99981.18
2019-05-23T00:34:34.118Z,99979.19
2019-05-23T00:37:07.127Z,99980.16
2019-05-23T00:39:38.421Z,99977.02
2019-05-23T00:42:10.987Z,99974.61
2019-05-23T00:44:42.213Z,99972.56
2019-05-23T00:47:13.798Z,99967.12
2019-05-23T00:49:47.230Z,99971.95
2019-05-23T00:52:18.691Z,99964.66
2019-05-23T00:54:50.659Z,99970.53
2019-05-23T00:57:21.863Z,99970.60
2019-05-23T00:59:53.087Z,99967.23
2019-05-23T01:02:25.398Z,99964.63
2019-05-23T01:04:56.640Z,99970.73
2019-05-23T01:07:28.004Z,99970.48
2019-05-23T01:10:00.574Z,99967.79
2019-05-23T01:12:33.099Z,99969.95
2019-05-23T01:15:06.616Z,99975.97
2019-05-23T01:17:38.285Z,99973.65
2019-05-23T01:20:12.309Z,99971.62
2019-05-23T01:22:43.681Z,99970.87
2019-05-23T01:25:16.167Z,99974.89
2019-05-23T01:27:47.778Z,99972.45
2019-05-23T01:30:22.506Z,99974.14
2019-05-23T01:32:55.768Z,99971.28
2019-05-23T01:35:27.881Z,99973.33
2019-05-23T01:38:03.412Z,99973.60
2019-05-23T01:40:33.291Z,99972.95
2019-05-23T01:43:05.291Z,99972.10
2019-05-23T01:45:38.390Z,99968.25
2019-05-23T01:48:11.194Z,99965.00
2019-05-23T01:50:43.075Z,99960.15
2019-05-23T01:53:15.849Z,99964.62
2019-05-23T01:55:47.854Z,99971.06
2019-05-23T01:58:20.085Z,99966.82
2019-05-23T02:00:51.364Z,99966.86
2019-05-23T02:03:23.221Z,99966.22
2019-05-23T02:05:54.802Z,99968.92
2019-05-23T02:08:26.017Z,99967.12
2019-05-23T02:10:57.244Z,99959.55
2019-05-23T02:13:28.378Z,99961.05
2019-05-23T02:16:00.422Z,99970.02
2019-05-23T02:18:32.390Z,99969.42
2019-05-23T02:21:05.344Z,99968.03
2019-05-23T02:23:36.547Z,99966.44
2019-05-23T02:26:08.911Z,99961.02
2019-05-23T02:28:41.393Z,99962.52
2019-05-23T02:31:14.279Z,99961.91
2019-05-23T02:33:46.073Z,99961.10
2019-05-23T02:36:17.703Z,99957.56
2019-05-23T02:39:16.428Z,99960.08
2019-05-23T02:41:57.914Z,99959.12
2019-05-23T02:44:32.132Z,99961.80
2019-05-23T02:47:14.737Z,99961.45
2019-05-23T02:49:47.922Z,99968.31
2019-05-23T02:52:46.417Z,99964.86
2019-05-23T02:55:38.905Z,99962.28
2019-05-23T02:58:38.983Z,99959.08
2019-05-23T03:01:49.202Z,99959.03
2019-05-23T03:04:24.996Z,99957.30
2019-05-23T03:06:56.488Z,99961.39
2019-05-23T03:09:34.028Z,99957.84
2019-05-23T03:12:07.404Z,99957.38
2019-05-23T03:14:39.580Z,99951.46
2019-05-23T03:17:16.331Z,99956.23
2019-05-23T03:19:56.050Z,99955.73
2019-05-23T03:22:54.231Z,99952.86
2019-05-23T03:26:16.675Z,99957.80
2019-05-23T03:28:48.472Z,99962.28
2019-05-23T03:31:31.492Z,99960.50
2019-05-23T03:34:00.309Z,99962.84
2019-05-23T03:36:31.797Z,99959.26
2019-05-23T03:39:04.196Z,99960.99
2019-05-23T03:41:35.885Z,99955.61
2019-05-23T03:44:09.038Z,99952.45
2019-05-23T03:46:44.631Z,99954.25
2019-05-23T03:49:16.391Z,99956.53
2019-05-23T03:51:48.028Z,99956.39
2019-05-23T03:54:21.104Z,99954.43
2019-05-23T03:56:52.325Z,99952.84
2019-05-23T03:59:24.907Z,99952.52
2019-05-23T04:01:56.775Z,99958.41
2019-05-23T04:04:28.372Z,99954.00
2019-05-23T04:06:59.740Z,99955.46
2019-05-23T04:09:31.165Z,99950.91
2019-05-23T04:12:02.388Z,99951.70
2019-05-23T04:14:33.879Z,99953.94
2019-05-23T04:17:06.585Z,99950.72
2019-05-23T04:19:37.898Z,99950.67
2019-05-23T04:22:09.349Z,99948.66
2019-05-23T04:24:40.747Z,99952.08
2019-05-23T04:27:12.365Z,99954.89
2019-05-23T04:29:43.678Z,99952.73
2019-05-23T04:32:14.976Z,99958.93
2019-05-23T04:34:46.250Z,99952.89
2019-05-23T04:37:17.551Z,99955.34
2019-05-23T04:39:48.848Z,99952.63
2019-05-23T04:42:20.230Z,99953.45
2019-05-23T04:44:51.539Z,99952.34
2019-05-23T04:47:23.863Z,99948.92
2019-05-23T04:49:55.284Z,99953.27
2019-05-23T04:52:27.325Z,99952.45
2019-05-23T04:54:58.994Z,99956.36
2019-05-23T04:57:30.855Z,99955.83
2019-05-23T05:00:03.352Z,99953.60
2019-05-23T05:02:34.634Z,99953.00
2019-05-23T05:05:07.905Z,99953.77
2019-05-23T05:07:39.122Z,99952.84
2019-05-23T05:10:12.224Z,99954.47
2019-05-23T05:12:44.155Z,99949.77
2019-05-23T05:15:15.436Z,99953.34
2019-05-23T05:17:47.272Z,99949.59
2019-05-23T05:20:18.558Z,99955.28
2019-05-23T05:22:51.251Z,99954.75
2019-05-23T05:25:22.627Z,99957.30
2019-05-23T05:27:53.849Z,99956.69
2019-05-23T05:30:34.140Z,99957.61
2019-05-23T05:33:05.494Z,99953.95
2019-05-23T05:35:36.738Z,99957.63
2019-05-23T05:38:07.942Z,99955.06
2019-05-23T05:40:39.642Z,99960.41
2019-05-23T05:43:11.045Z,99955.41
2019-05-23T05:45:42.300Z,99956.31
2019-05-23T05:48:13.536Z,99957.16
2019-05-23T05:50:44.759Z,99954.98
2019-05-23T05:53:15.957Z,99958.44
2019-05-23T05:55:47.208Z,99957.05
2019-05-23T05:58:18.387Z,99960.97
2019-05-23T06:00:54.241Z,99960.73
2019-05-23T06:03:25.357Z,99960.55
2019-05-23T06:06:03.484Z,99961.66
2019-05-23T06:08:36.627Z,99961.67
2019-05-23T06:11:08.132Z,99961.56
2019-05-23T06:13:39.424Z,99962.02
2019-05-23T06:16:10.902Z,99962.53
2019-05-23T06:18:42.110Z,99963.81
2019-05-23T06:21:15.085Z,99963.69
2019-05-23T06:23:46.649Z,99968.70
2019-05-23T06:26:17.896Z,99962.70
2019-05-23T06:28:49.716Z,99960.91
2019-05-23T06:31:21.611Z,99964.73
2019-05-23T06:33:53.631Z,99960.95
2019-05-23T06:36:24.863Z,99961.00
2019-05-23T06:38:56.803Z,99961.82
2019-05-23T06:41:28.308Z,99964.34
2019-05-23T06:43:59.497Z,99960.87
2019-05-23T06:46:30.810Z,99963.13
2019-05-23T06:49:02.203Z,99966.72
2019-05-23T06:51:33.477Z,99964.48
2019-05-23T06:54:05.130Z,99967.48
2019-05-23T06:56:36.681Z,99964.72
2019-05-23T06:59:08.099Z,99966.52
2019-05-23T07:01:39.298Z,99958.98
2019-05-23T07:04:10.615Z,99954.97
2019-05-23T07:06:41.864Z,99957.71
2019-05-23T07:09:16.008Z,99956.14
2019-05-23T07:11:47.196Z,99959.77
2019-05-23T07:14:18.436Z,99960.13
2019-05-23T07:16:50.428Z,99967.94
2019-05-23T07:19:22.204Z,99966.28
2019-05-23T07:21:53.866Z,99969.50
2019-05-23T07:24:25.647Z,99972.05
2019-05-23T07:26:56.999Z,99973.89
2019-05-23T07:29:28.282Z,99969.84
2019-05-23T07:31:59.514Z,99969.36
2019-05-23T07:34:30.742Z,99977.36
2019-05-23T07:37:01.946Z,99975.09
2019-05-23T07:39:33.170Z,99978.33
2019-05-23T07:42:04.932Z,99974.55
2019-05-23T07:44:47.861Z,99971.94
2019-05-23T07:47:11.677Z,99961.70
2019-05-23T07:49:43.052Z,99964.28
2019-05-23T07:52:14.311Z,99961.10
2019-05-23T07:54:59.731Z,99959.47
2019-05-23T07:57:31.305Z,99959.39
2019-05-23T08:00:04.571Z,99961.87
2019-05-23T08:02:38.971Z,99955.91
2019-05-23T08:05:11.854Z,99954.99
2019-05-23T08:07:43.202Z,99952.77
2019-05-23T08:10:32.197Z,99959.16
2019-05-23T08:12:47.604Z,99956.09
2019-05-23T08:15:18.900Z,99953.11
2019-05-23T08:17:50.287Z,99950.12
2019-05-23T08:20:21.683Z,99943.96
2019-05-23T08:22:52.933Z,99947.19
2019-05-23T08:25:25.793Z,99945.14
2019-05-23T08:27:57.108Z,99946.68
2019-05-23T08:30:28.394Z,99949.11
2019-05-23T08:32:59.863Z,99947.17
2019-05-23T08:37:21.217Z,99942.78
2019-05-23T08:39:54.789Z,99942.52
2019-05-23T08:42:26.986Z,99940.54
2019-05-23T08:44:59.274Z,99937.08
2019-05-23T08:47:32.361Z,99937.05
2019-05-23T08:50:04.794Z,99932.37
2019-05-23T08:52:36.981Z,99929.98
2019-05-23T08:55:20.810Z,99924.37
2019-05-23T08:57:53.834Z,99920.61
2019-05-23T09:00:27.791Z,99922.34
2019-05-23T09:03:02.052Z,99917.09
2019-05-23T09:05:34.412Z,99915.83
2019-05-23T09:08:06.694Z,99911.66
2019-05-23T09:10:39.592Z,99908.65
2019-05-23T09:13:12.845Z,99906.70
2019-05-23T09:15:45.244Z,99908.67
2019-05-23T09:18:17.456Z,99908.52
2019-05-23T09:20:49.708Z,99906.31
2019-05-23T09:23:22.058Z,99909.80
2019-05-23T09:25:54.300Z,99913.94
2019-05-23T09:28:26.649Z,99914.17
2019-05-23T09:30:59.099Z,99905.27
2019-05-23T09:33:31.759Z,99901.13
2019-05-23T09:36:03.990Z,99901.87
2019-05-23T09:38:36.291Z,99904.91
2019-05-23T09:41:08.560Z,99904.70
2019-05-23T09:43:40.678Z,99904.05
2019-05-23T09:46:13.071Z,99901.31
2019-05-23T09:48:45.370Z,99899.89
2019-05-23T09:51:17.717Z,99896.52
2019-05-23T09:53:51.139Z,99896.77
2019-05-23T09:56:23.472Z,99900.15
2019-05-23T09:58:55.803Z,99887.28
2019-05-23T10:01:28.058Z,99888.08
2019-05-23T10:04:00.304Z,99888.21
2019-05-23T10:06:32.793Z,99887.72
2019-05-23T10:09:06.774Z,99890.36
2019-05-23T10:11:38.987Z,99889.72
2019-05-23T10:14:15.799Z,99888.97
2019-05-23T10:16:48.116Z,99882.64
2019-05-23T10:19:20.248Z,99875.67
2019-05-23T10:21:52.554Z,99880.45
2019-05-23T10:24:25.002Z,99878.96
2019-05-23T10:26:57.311Z,99874.44
2019-05-23T10:29:29.537Z,99878.20
2019-05-23T10:32:01.759Z,99871.64
2019-05-23T10:34:34.042Z,99867.98
2019-05-23T10:37:08.227Z,99867.09
2019-05-23T10:39:42.527Z,99863.14
2019-05-23T10:42:14.789Z,99865.64
2019-05-23T10:44:46.992Z,99862.83
2019-05-23T10:47:19.854Z,99864.97
2019-05-23T10:49:52.049Z,99863.44
2019-05-23T10:52:24.467Z,99862.69
2019-05-23T10:54:56.660Z,99858.94
2019-05-23T10:57:28.871Z,99853.72
2019-05-23T11:00:01.139Z,99851.13
2019-05-23T11:02:35.143Z,99848.78
2019-05-23T11:05:12.765Z,99847.09
2019-05-23T11:07:42.854Z,99843.47
2019-05-23T11:10:16.145Z,99844.38
2019-05-23T11:12:48.449Z,99838.58
2019-05-23T11:15:20.757Z,99836.97
2019-05-23T11:17:53.962Z,99829.84
2019-05-23T11:20:26.994Z,99829.41
2019-05-23T11:22:59.226Z,99830.73
2019-05-23T11:25:32.456Z,99833.02
2019-05-23T11:28:04.913Z,99830.34
2019-05-23T11:30:53.862Z,99826.05
2019-05-23T11:33:26.241Z,99830.52
2019-05-23T11:35:58.798Z,99833.56
2019-05-23T11:38:31.306Z,99829.55
2019-05-23T11:41:03.840Z,99823.72
2019-05-23T11:43:36.069Z,99825.82
2019-05-23T11:46:21.780Z,99819.34
2019-05-23T11:48:54.451Z,99815.80
2019-05-23T11:51:27.331Z,99811.59
2019-05-23T11:54:07.523Z,99814.30
2019-05-23T11:56:35.202Z,99811.47
2019-05-23T11:59:07.755Z,99810.81
2019-05-23T12:02:05.175Z,99807.73
2019-05-23T12:04:40.140Z,99807.70
2019-05-23T12:07:16.997Z,99806.00
2019-05-23T12:09:49.365Z,99804.91
2019-05-23T12:12:21.581Z,99797.91
2019-05-23T12:14:54.332Z,99797.17
2019-05-23T12:17:29.626Z,99795.44
2019-05-23T12:20:01.857Z,99791.06
2019-05-23T12:22:34.556Z,99787.40
2019-05-23T12:25:20.954Z,99789.98
2019-05-23T12:27:42.324Z,99786.32
2019-05-23T12:30:16.090Z,99781.61
2019-05-23T12:32:48.288Z,99780.45
2019-05-23T12:35:20.737Z,99778.75
2019-05-23T12:37:52.984Z,99774.39
2019-05-23T12:40:25.210Z,99773.89
2019-05-23T12:42:57.513Z,99777.27
2019-05-23T12:45:29.791Z,99776.25
2019-05-23T12:48:06.708Z,99773.96
2019-05-23T12:50:41.764Z,99767.90
2019-05-23T12:53:15.420Z,99769.05
2019-05-23T12:55:47.668Z,99767.45
2019-05-23T12:58:19.880Z,99761.45
2019-05-23T13:00:57.053Z,99759.09
2019-05-23T13:03:29.725Z,99763.94
2019-05-23T13:06:02.031Z,99760.08
2019-05-23T13:08:34.287Z,99761.70
2019-05-23T13:11:06.718Z,99756.23
2019-05-23T13:13:38.987Z,99758.72
2019-05-23T13:16:11.248Z,99758.60
2019-05-23T13:18:43.523Z,99756.30
2019-05-23T13:21:15.759Z,99754.84
2019-05-23T13:23:48.013Z,99751.38
2019-05-23T13:26:20.467Z,99753.36
2019-05-23T13:28:52.697Z,99753.34
2019-05-23T13:31:25.290Z,99744.84
2019-05-23T13:33:57.574Z,99750.45
2019-05-23T13:36:29.812Z,99743.63
2019-05-23T13:39:02.111Z,99745.70
2019-05-23T13:41:34.605Z,99744.33
2019-05-23T13:44:07.325Z,99745.34
2019-05-23T13:46:39.520Z,99735.86
2019-05-23T13:49:12.183Z,99733.79
2019-05-23T13:51:44.645Z,99732.47
2019-05-23T13:54:16.909Z,99727.16
2019-05-23T13:56:50.350Z,99729.92
2019-05-23T13:59:22.635Z,99728.63
2019-05-23T14:01:54.989Z,99725.55
2019-05-23T14:04:27.441Z,99724.55
2019-05-23T14:07:00.739Z,99717.63
2019-05-23T14:09:33.034Z,99715.56
2019-05-23T14:12:20.729Z,99714.82
2019-05-23T14:14:39.723Z,99712.20
2019-05-23T14:17:26.108Z,99708.00
2019-05-23T14:19:58.328Z,99703.10
2019-05-23T14:22:32.889Z,99697.88
2019-05-23T14:25:06.361Z,99695.97
2019-05-23T14:27:48.181Z,99695.55
2019-05-23T14:30:34.205Z,99688.71
2019-05-23T14:33:09.509Z,99686.20
2019-05-23T14:35:42.536Z,99687.91
2019-05-23T14:38:29.608Z,99688.31
2019-05-23T14:40:50.705Z,99679.83
2019-05-23T14:43:25.866Z,99678.98
2019-05-23T14:46:12.338Z,99676.64
2019-05-23T14:49:01.832Z,99675.11
2019-05-23T14:51:49.396Z,99668.73
2019-05-23T14:54:43.697Z,99667.20
2019-05-23T14:57:16.184Z,99662.41
2019-05-23T14:59:48.703Z,99661.88
2019-05-23T15:02:21.625Z,99659.63
2019-05-23T15:04:53.971Z,99652.38
2019-05-23T15:07:26.338Z,99654.27
2019-05-23T15:09:58.750Z,99655.69
2019-05-23T15:12:31.244Z,99655.16
2019-05-23T15:15:03.746Z,99653.70
2019-05-23T15:17:36.191Z,99651.23
2019-05-23T15:20:08.612Z,99648.75
2019-05-23T15:22:40.997Z,99647.69
2019-05-23T15:25:13.403Z,99652.14
2019-05-23T15:27:45.647Z,99647.14
2019-05-23T15:30:18.462Z,99644.98
2019-05-23T15:32:50.765Z,99644.66
2019-05-23T15:35:23.117Z,99641.25
2019-05-23T15:37:55.465Z,99642.70
2019-05-23T15:40:28.144Z,99638.01
2019-05-23T15:43:00.313Z,99636.36
2019-05-23T15:45:32.881Z,99632.45
2019-05-23T15:48:05.200Z,99631.95
2019-05-23T15:50:43.199Z,99630.23
2019-05-23T15:53:24.075Z,99627.37
2019-05-23T15:56:27.014Z,99622.31
2019-05-23T15:58:59.599Z,99622.38
2019-05-23T16:01:43.228Z,99618.73
2019-05-23T16:04:17.334Z,99619.22
2019-05-23T16:06:51.125Z,99617.38
2019-05-23T16:09:30.287Z,99614.02
2019-05-23T16:11:57.993Z,99617.16
2019-05-23T16:14:31.236Z,99615.12
2019-05-23T16:17:05.286Z,99612.17
2019-05-23T16:19:37.822Z,99613.47
2019-05-23T16:22:10.528Z,99616.11
2019-05-23T16:24:42.919Z,99610.98
2019-05-23T16:27:15.509Z,99608.52
2019-05-23T16:29:47.814Z,99604.61
2019-05-23T16:32:20.148Z,99604.20
2019-05-23T16:34:52.521Z,99606.84
2019-05-23T16:37:25.201Z,99603.73
2019-05-23T16:39:57.566Z,99602.30
2019-05-23T16:42:30.374Z,99603.85
2019-05-23T16:45:02.686Z,99603.83
2019-05-23T16:47:35.156Z,99604.36
2019-05-23T16:50:07.499Z,99601.97
2019-05-23T16:52:39.896Z,99602.41
2019-05-23T16:55:19.345Z,99605.08
2019-05-23T16:57:56.395Z,99604.70
2019-05-23T17:00:48.370Z,99600.55
2019-05-23T17:03:49.970Z,99598.45
2019-05-23T17:06:48.966Z,99597.83
2019-05-23T17:09:42.432Z,99603.72
2019-05-23T17:12:35.073Z,99598.88
2019-05-23T17:15:21.323Z,99598.47
2019-05-23T17:18:26.292Z,99600.42
2019-05-23T17:21:21.525Z,99596.67
2019-05-23T17:24:30.985Z,99590.45
2019-05-23T17:27:29.187Z,99589.97
2019-05-23T17:30:56.955Z,99589.86
2019-05-23T17:33:32.065Z,99581.70
2019-05-23T17:36:11.050Z,99576.67
2019-05-23T17:38:48.530Z,99576.50
2019-05-23T17:41:23.258Z,99574.03
2019-05-23T17:44:17.418Z,99574.36
2019-05-23T17:46:51.217Z,99571.14
2019-05-23T17:49:24.851Z,99575.68
2019-05-23T17:52:00.024Z,99576.36
2019-05-23T17:54:35.812Z,99573.65
2019-05-23T17:57:11.476Z,99573.18
2019-05-23T17:59:46.872Z,99573.08
2019-05-23T18:02:22.891Z,99577.05
2019-05-23T18:05:00.414Z,99579.69
2019-05-23T18:07:42.510Z,99574.02
2019-05-23T18:10:22.233Z,99576.09
2019-05-23T18:13:06.643Z,99576.12
2019-05-23T18:16:26.041Z,99577.12
2019-05-23T18:19:01.986Z,99581.23
2019-05-23T18:21:39.567Z,99578.70
2019-05-23T18:24:42.949Z,99577.00
2019-05-23T18:27:36.466Z,99579.95
2019-05-23T18:31:10.224Z,99580.17
2019-05-23T18:33:56.847Z,99577.70
2019-05-23T18:37:12.570Z,99578.24
2019-05-23T18:41:08.724Z,99577.10
2019-05-23T18:43:42.356Z,99581.41
2019-05-23T18:46:41.915Z,99587.53
2019-05-23T18:49:17.305Z,99585.52
2019-05-23T18:51:52.641Z,99586.56
2019-05-23T18:54:29.773Z,99588.41
2019-05-23T18:57:07.375Z,99589.53
2019-05-23T18:59:41.341Z,99591.05
2019-05-23T19:02:17.713Z,99592.19
2019-05-23T19:05:04.467Z,99595.76
2019-05-23T19:08:06.793Z,99598.67
2019-05-23T19:10:41.775Z,99598.33
2019-05-23T19:13:17.575Z,99596.95
2019-05-23T19:15:56.688Z,99599.56
2019-05-23T19:18:30.128Z,99602.17
2019-05-23T19:21:09.880Z,99604.04
2019-05-23T19:23:46.385Z,99603.95
2019-05-23T19:26:20.715Z,99602.75
2019-05-23T19:28:54.630Z,99604.45
2019-05-23T19:31:29.295Z,99605.44
2019-05-23T19:34:21.093Z,99603.81
2019-05-23T19:36:56.008Z,99605.91
2019-05-23T19:39:31.457Z,99614.02
2019-05-23T19:42:07.080Z,99610.75
2019-05-23T19:47:21.454Z,99615.97
2019-05-23T19:49:54.921Z,99613.77
2019-05-23T19:52:29.916Z,99610.71
2019-05-23T19:55:05.452Z,99614.96
2019-05-23T19:57:38.906Z,99614.56
2019-05-23T20:00:16.216Z,99617.50
2019-05-23T20:03:04.474Z,99615.95
2019-05-23T20:05:39.236Z,99613.45
2019-05-23T20:08:11.581Z,99612.29
2019-05-23T20:10:43.841Z,99614.48
2019-05-23T20:13:18.525Z,99610.33
2019-05-23T20:15:50.441Z,99611.85
2019-05-23T20:18:23.095Z,99611.60
2019-05-23T20:20:55.227Z,99608.08
2019-05-23T20:23:27.734Z,99611.80
2019-05-23T20:25:59.935Z,99603.39
2019-05-23T20:28:32.480Z,99609.20
2019-05-23T20:31:05.064Z,99609.73
2019-05-23T20:33:37.297Z,99607.06
2019-05-23T20:36:13.208Z,99606.26
2019-05-23T20:38:46.036Z,99607.09
2019-05-23T20:41:19.030Z,99603.61
2019-05-23T20:43:51.255Z,99603.24
2019-05-23T20:46:23.633Z,99602.70
2019-05-23T20:48:55.834Z,99607.59
2019-05-23T20:51:28.089Z,99609.75
2019-05-23T20:54:01.389Z,99607.14
2019-05-23T20:56:33.720Z,99609.61
2019-05-23T20:59:06.026Z,99608.51
2019-05-23T21:01:40.375Z,99607.97
2019-05-23T21:04:12.858Z,99607.84
2019-05-23T21:06:45.054Z,99606.31
2019-05-23T21:09:17.429Z,99608.02
2019-05-23T21:11:51.843Z,99606.50
2019-05-23T21:14:24.279Z,99608.92
2019-05-23T21:16:56.469Z,99621.19
2019-05-23T21:19:28.682Z,99619.09
2019-05-23T21:22:00.875Z,99626.50
2019-05-23T21:24:34.158Z,99623.14
2019-05-23T21:27:06.516Z,99618.74
2019-05-23T21:29:38.808Z,99622.04
2019-05-23T21:32:11.482Z,99619.28
2019-05-23T21:34:43.760Z,99621.54
2019-05-23T21:37:16.029Z,99615.64
2019-05-23T21:39:48.319Z,99616.35
2019-05-23T21:42:20.594Z,99617.00
2019-05-23T21:44:52.818Z,99614.89
2019-05-23T21:47:25.005Z,99615.89
2019-05-23T21:49:57.227Z,99619.96
2019-05-23T21:52:29.498Z,99623.53
2019-05-23T21:55:01.778Z,99621.08
2019-05-23T21:57:33.972Z,99617.64
2019-05-23T22:00:08.110Z,99616.92
2019-05-23T22:02:41.971Z,99610.72
2019-05-23T22:05:16.441Z,99613.84
2019-05-23T22:07:49.039Z,99608.59
2019-05-23T22:10:21.429Z,99601.48
2019-05-23T22:13:03.808Z,99607.44
2019-05-23T22:15:39.421Z,99603.66
2019-05-23T22:18:11.705Z,99605.03
2019-05-23T22:20:44.078Z,99606.12
2019-05-23T22:23:16.262Z,99601.78
2019-05-23T22:25:48.555Z,99602.92
2019-05-23T22:28:21.305Z,99603.20
2019-05-23T22:30:53.460Z,99604.03
2019-05-23T22:33:27.243Z,99599.55
2019-05-23T22:36:00.413Z,99599.81
2019-05-23T22:38:32.617Z,99595.30
2019-05-23T22:41:04.892Z,99596.70
2019-05-23T22:43:38.079Z,99596.12
2019-05-23T22:46:10.900Z,99596.00
2019-05-23T22:48:43.225Z,99597.17
2019-05-23T22:51:15.446Z,99594.72
2019-05-23T22:53:47.696Z,99596.19
2019-05-23T22:56:19.931Z,99595.63
2019-05-23T22:58:52.121Z,99598.22
2019-05-23T23:01:26.437Z,99599.05
2019-05-23T23:03:58.636Z,99595.80
2019-05-23T23:06:31.233Z,99588.92
2019-05-23T23:09:03.459Z,99592.36
2019-05-23T23:11:35.750Z,99587.80
2019-05-23T23:14:08.023Z,99589.78
2019-05-23T23:16:40.385Z,99590.20
2019-05-23T23:19:12.663Z,99587.34
2019-05-23T23:21:45.958Z,99585.94
2019-05-23T23:24:18.220Z,99585.00
2019-05-23T23:26:50.598Z,99579.69
2019-05-23T23:29:22.949Z,99571.79
2019-05-23T23:31:55.095Z,99572.19
2019-05-23T23:34:27.329Z,99569.97
2019-05-23T23:36:59.632Z,99568.99
2019-05-23T23:39:31.813Z,99569.44
2019-05-23T23:42:04.988Z,99570.16
2019-05-23T23:44:36.220Z,99568.15
2019-05-23T23:47:26.182Z,99569.52
2019-05-23T23:50:15.739Z,99566.06
2019-05-23T23:53:05.474Z,99564.50
2019-05-23T23:55:55.545Z,99567.55
2019-05-23T23:58:26.796Z,99569.14
